Time;durP1;ratioP1;P1;durP2;ratioP2;P2;SDS_P1;SDS_P2;PMS_P1;PMS_P2;Temp;Humidity;BMP_temperature;BMP_pressure;BME280_temperature;BME280_humidity;BME280_pressure;Samples;Min_cycle;Max_cycle;Signal;HPM_P1;HPM_P2
2023/09/23 00:01:46;;;;;;;0.38;0.30;;;;;;;;;;5052095;28;20025;-79
2023/09/23 00:04:12;;;;;;;0.28;0.20;;;;;;;;;;5058849;28;20022;-79
2023/09/23 00:06:38;;;;;;;0.30;0.30;;;;;;;;;;5042262;28;20041;-80
2023/09/23 00:09:04;;;;;;;0.10;0.10;;;;;;;;;;5040177;28;20032;-79
2023/09/23 00:11:31;;;;;;;0.32;0.20;;;;;;;;;;5039975;28;20026;-79
2023/09/23 00:13:57;;;;;;;0.38;0.30;;;;;;;;;;5068033;28;20451;-78
2023/09/23 00:16:23;;;;;;;0.28;0.28;;;;;;;;;;5059268;28;20025;-80
2023/09/23 00:18:51;;;;;;;0.20;0.20;;;;;;;;;;5060452;28;20017;-81
2023/09/23 00:21:17;;;;;;;0.22;0.22;;;;;;;;;;5059992;28;20017;-80
2023/09/23 00:23:45;;;;;;;0.47;0.30;;;;;;;;;;5052203;28;20494;-79
2023/09/23 00:26:14;;;;;;;0.10;0.10;;;;;;;;;;5039155;28;20033;-80
2023/09/23 00:28:40;;;;;;;0.40;0.30;;;;;;;;;;5039894;28;20113;-79
2023/09/23 00:31:11;;;;;;;0.50;0.47;;;;;;;;;;5039604;28;20504;-80
2023/09/23 00:33:37;;;;;;;0.98;0.22;;;;;;;;;;5042786;28;20029;-79
2023/09/23 00:36:05;;;;;;;0.40;0.40;;;;;;;;;;5059544;28;20055;-79
2023/09/23 00:38:32;;;;;;;0.60;0.30;;;;;;;;;;5060378;28;20517;-80
2023/09/23 00:40:58;;;;;;;0.40;0.40;;;;;;;;;;5060725;28;20391;-79
2023/09/23 00:43:24;;;;;;;0.30;0.30;;;;;;;;;;5060994;28;20108;-79
2023/09/23 00:45:54;;;;;;;0.30;0.30;;;;;;;;;;5060512;28;20021;-78
2023/09/23 00:48:22;;;;;;;0.63;0.40;;;;;;;;;;5070025;28;20056;-79
2023/09/23 00:50:48;;;;;;;0.20;0.20;;;;;;;;;;5067860;28;20086;-79
2023/09/23 00:53:15;;;;;;;0.32;0.20;;;;;;;;;;5065113;28;20395;-78
2023/09/23 00:55:51;;;;;;;0.52;0.40;;;;;;;;;;5049222;28;20036;-79
2023/09/23 00:58:20;;;;;;;0.20;0.20;;;;;;;;;;5057760;28;20076;-79
2023/09/23 01:00:47;;;;;;;0.28;0.20;;;;;;;;;;5039240;28;20017;-78
2023/09/23 01:03:13;;;;;;;0.35;0.20;;;;;;;;;;5041002;28;20022;-79
2023/09/23 01:05:40;;;;;;;0.57;0.30;;;;;;;;;;5045825;28;20052;-79
2023/09/23 01:08:20;;;;;;;0.17;0.17;;;;;;;;;;5044581;28;20113;-80
2023/09/23 01:10:48;;;;;;;1.67;0.20;;;;;;;;;;5040372;28;20021;-79
2023/09/23 01:13:14;;;;;;;0.20;0.20;;;;;;;;;;5041806;28;20013;-79
2023/09/23 01:15:41;;;;;;;0.30;0.30;;;;;;;;;;5043052;28;20052;-79
2023/09/23 01:18:13;;;;;;;0.30;0.30;;;;;;;;;;5052349;28;20076;-79
2023/09/23 01:20:42;;;;;;;;;;;;;;;;;;5039713;28;20044;-81
2023/09/23 01:23:10;;;;;;;0.30;0.30;;;;;;;;;;5044378;28;20268;-79
2023/09/23 01:25:36;;;;;;;0.30;0.30;;;;;;;;;;5059382;28;20029;-80
2023/09/23 01:28:11;;;;;;;0.88;0.40;;;;;;;;;;5059839;28;20040;-80
2023/09/23 01:30:46;;;;;;;0.45;0.32;;;;;;;;;;5060285;28;20028;-80
2023/09/23 01:33:15;;;;;;;0.40;0.40;;;;;;;;;;5058747;28;20468;-80
2023/09/23 01:35:42;;;;;;;0.30;0.30;;;;;;;;;;5045917;28;20030;-80
2023/09/23 01:38:08;;;;;;;0.30;0.30;;;;;;;;;;5039287;28;20048;-79
2023/09/23 01:40:36;;;;;;;0.35;0.35;;;;;;;;;;5054973;28;20109;-79
2023/09/23 01:43:02;;;;;;;0.20;0.20;;;;;;;;;;5039991;28;20072;-78
2023/09/23 01:45:28;;;;;;;0.80;0.30;;;;;;;;;;5058711;28;20059;-79
2023/09/23 01:47:56;;;;;;;0.28;0.20;;;;;;;;;;5055108;28;20029;-79
2023/09/23 01:50:23;;;;;;;0.20;0.20;;;;;;;;;;5039431;28;20506;-80
2023/09/23 01:52:49;;;;;;;0.20;0.13;;;;;;;;;;5054540;28;20032;-79
2023/09/23 01:55:17;;;;;;;0.13;0.13;;;;;;;;;;5069730;28;20087;-79
2023/09/23 01:57:43;;;;;;;0.20;0.20;;;;;;;;;;5059543;28;20017;-79
2023/09/23 02:00:17;;;;;;;0.25;0.25;;;;;;;;;;5059347;28;20097;-79
2023/09/23 02:02:44;;;;;;;0.52;0.20;;;;;;;;;;5044490;28;20021;-80
2023/09/23 02:05:10;;;;;;;0.20;0.10;;;;;;;;;;5048515;28;20047;-79
2023/09/23 02:07:38;;;;;;;0.22;0.20;;;;;;;;;;5052614;28;20044;-78
2023/09/23 02:10:05;;;;;;;0.20;0.20;;;;;;;;;;5051619;28;20024;-79
2023/09/23 02:12:33;;;;;;;0.38;0.38;;;;;;;;;;5042211;28;20151;-79
2023/09/23 02:14:59;;;;;;;0.70;0.32;;;;;;;;;;5050078;28;20578;-78
2023/09/23 02:17:25;;;;;;;0.20;0.20;;;;;;;;;;5074562;28;20017;-79
2023/09/23 02:19:52;;;;;;;0.30;0.30;;;;;;;;;;5069197;28;20040;-79
2023/09/23 02:22:18;;;;;;;0.28;0.20;;;;;;;;;;5079074;28;20048;-79
2023/09/23 02:24:44;;;;;;;0.20;0.20;;;;;;;;;;5062165;28;20428;-79
2023/09/23 02:27:11;;;;;;;0.20;0.20;;;;;;;;;;5047017;28;20050;-79
2023/09/23 02:29:38;;;;;;;0.20;0.20;;;;;;;;;;5056298;28;20017;-78
2023/09/23 02:32:07;;;;;;;0.43;0.30;;;;;;;;;;5071546;28;20013;-78
2023/09/23 02:34:33;;;;;;;0.38;0.20;;;;;;;;;;5071550;28;20017;-78
2023/09/23 02:36:59;;;;;;;0.28;0.20;;;;;;;;;;5052668;28;20033;-78
2023/09/23 02:39:25;;;;;;;0.95;0.50;;;;;;;;;;5051105;28;20029;-79
2023/09/23 02:41:51;;;;;;;0.38;0.38;;;;;;;;;;5058250;28;20017;-78
2023/09/23 02:44:24;;;;;;;0.50;0.35;;;;;;;;;;5062796;28;20029;-78
2023/09/23 02:46:52;;;;;;;1.60;0.43;;;;;;;;;;5065307;28;20021;-78
2023/09/23 02:49:19;;;;;;;0.45;0.32;;;;;;;;;;5077644;28;20025;-78
2023/09/23 02:51:51;;;;;;;0.38;0.35;;;;;;;;;;5067815;28;20021;-80
2023/09/23 02:54:17;;;;;;;0.52;0.32;;;;;;;;;;5063019;28;20017;-79
2023/09/23 02:56:45;;;;;;;0.30;0.30;;;;;;;;;;5074226;28;20093;-80
2023/09/23 02:59:13;;;;;;;0.68;0.30;;;;;;;;;;5069384;28;20033;-78
2023/09/23 03:01:44;;;;;;;0.30;0.30;;;;;;;;;;5072057;28;20021;-78
2023/09/23 03:04:16;;;;;;;0.43;0.30;;;;;;;;;;5061244;28;20044;-79
2023/09/23 03:06:55;;;;;;;0.52;0.35;;;;;;;;;;5061534;28;20025;-80
2023/09/23 03:09:34;;;;;;;0.40;0.40;;;;;;;;;;5063091;28;20041;-78
2023/09/23 03:12:05;;;;;;;0.20;0.20;;;;;;;;;;5054430;28;20104;-83
2023/09/23 03:14:43;;;;;;;0.20;0.20;;;;;;;;;;5036077;28;20033;-84
2023/09/23 03:17:13;;;;;;;0.40;0.22;;;;;;;;;;5045768;28;20053;-79
2023/09/23 03:19:39;;;;;;;0.65;0.17;;;;;;;;;;5044621;28;20028;-78
2023/09/23 03:22:05;;;;;;;0.30;0.30;;;;;;;;;;5041719;28;20076;-79
2023/09/23 03:24:31;;;;;;;0.40;0.40;;;;;;;;;;5039455;28;20152;-79
2023/09/23 03:26:59;;;;;;;0.20;0.20;;;;;;;;;;5040481;28;20053;-80
2023/09/23 03:29:29;;;;;;;0.20;0.20;;;;;;;;;;5041002;28;20029;-79
2023/09/23 03:31:59;;;;;;;0.20;0.20;;;;;;;;;;5039387;28;20032;-78
2023/09/23 03:34:26;;;;;;;0.20;0.20;;;;;;;;;;5043671;28;20039;-79
2023/09/23 03:36:53;;;;;;;0.30;0.30;;;;;;;;;;5059430;28;20017;-79
2023/09/23 03:39:19;;;;;;;2.85;0.47;;;;;;;;;;5059485;28;20104;-77
2023/09/23 03:41:46;;;;;;;2.00;0.40;;;;;;;;;;5060343;28;20029;-78
2023/09/23 03:44:16;;;;;;;1.17;0.50;;;;;;;;;;5060593;28;20055;-78
2023/09/23 03:46:48;;;;;;;0.30;0.30;;;;;;;;;;5043693;28;20039;-77
2023/09/23 03:49:14;;;;;;;0.40;0.30;;;;;;;;;;5053162;28;20116;-78
2023/09/23 03:51:40;;;;;;;0.60;0.43;;;;;;;;;;5059348;28;20024;-80
2023/09/23 03:54:06;;;;;;;1.00;0.60;;;;;;;;;;5059357;28;20013;-80
2023/09/23 03:56:33;;;;;;;0.55;0.50;;;;;;;;;;5060178;28;20029;-79
2023/09/23 03:59:00;;;;;;;4.10;2.92;;;;;;;;;;5058464;28;20025;-79
2023/09/23 04:01:26;;;;;;;1.50;1.40;;;;;;;;;;5058253;28;20037;-78
2023/09/23 04:03:52;;;;;;;0.90;0.60;;;;;;;;;;5038070;28;20068;-77
2023/09/23 04:06:19;;;;;;;0.73;0.60;;;;;;;;;;5052465;28;20043;-77
2023/09/23 04:08:46;;;;;;;0.70;0.50;;;;;;;;;;5046810;28;20369;-78
2023/09/23 04:11:15;;;;;;;0.93;0.40;;;;;;;;;;5033901;28;20452;-76
2023/09/23 04:13:41;;;;;;;2.60;1.17;;;;;;;;;;5032393;28;20037;-76
2023/09/23 04:16:09;;;;;;;1.10;0.40;;;;;;;;;;5046928;28;20006;-74
2023/09/23 04:18:35;;;;;;;0.35;0.35;;;;;;;;;;5043359;28;20021;-77
2023/09/23 04:21:02;;;;;;;1.58;0.93;;;;;;;;;;5034713;28;20075;-75
2023/09/23 04:23:28;;;;;;;1.80;0.60;;;;;;;;;;5043215;28;20408;-76
2023/09/23 04:25:54;;;;;;;1.35;0.63;;;;;;;;;;5035548;28;20037;-77
2023/09/23 04:28:20;;;;;;;1.50;0.55;;;;;;;;;;5034591;28;20113;-76
2023/09/23 04:30:46;;;;;;;4.03;0.50;;;;;;;;;;5044341;28;20088;-76
2023/09/23 04:33:12;;;;;;;0.82;0.60;;;;;;;;;;5045339;28;20104;-77
2023/09/23 04:35:39;;;;;;;1.50;0.70;;;;;;;;;;5053414;28;20143;-77
2023/09/23 04:38:05;;;;;;;0.40;0.40;;;;;;;;;;5054143;28;20040;-77
2023/09/23 04:40:31;;;;;;;1.35;0.63;;;;;;;;;;5051979;28;20028;-77
2023/09/23 04:42:57;;;;;;;0.63;0.40;;;;;;;;;;5052959;28;20124;-77
2023/09/23 04:45:24;;;;;;;1.05;0.50;;;;;;;;;;5070662;28;20039;-77
2023/09/23 04:47:50;;;;;;;0.77;0.57;;;;;;;;;;5064098;28;20032;-77
2023/09/23 04:50:17;;;;;;;2.30;0.57;;;;;;;;;;5050163;28;20032;-77
2023/09/23 04:52:44;;;;;;;1.75;0.52;;;;;;;;;;5033320;28;20032;-78
2023/09/23 04:55:11;;;;;;;1.95;0.85;;;;;;;;;;5033554;28;20045;-77
2023/09/23 04:57:37;;;;;;;1.05;0.50;;;;;;;;;;5031570;28;20033;-77
2023/09/23 05:00:04;;;;;;;1.20;0.52;;;;;;;;;;5033130;28;20022;-77
2023/09/23 05:02:31;;;;;;;0.57;0.55;;;;;;;;;;5034147;28;20013;-77
2023/09/23 05:04:58;;;;;;;1.42;0.47;;;;;;;;;;5033046;28;20024;-76
2023/09/23 05:07:25;;;;;;;1.38;0.60;;;;;;;;;;5032608;28;20025;-77
2023/09/23 05:09:51;;;;;;;1.05;0.70;;;;;;;;;;5031455;28;20056;-77
2023/09/23 05:12:21;;;;;;;1.15;0.43;;;;;;;;;;5035921;28;20028;-77
2023/09/23 05:14:47;;;;;;;1.00;0.90;;;;;;;;;;5044336;28;20085;-77
2023/09/23 05:17:17;;;;;;;0.70;0.60;;;;;;;;;;5051013;28;20545;-77
2023/09/23 05:19:46;;;;;;;1.08;0.85;;;;;;;;;;5052786;28;20554;-78
2023/09/23 05:22:12;;;;;;;0.85;0.68;;;;;;;;;;5044143;28;20021;-78
2023/09/23 05:24:39;;;;;;;0.77;0.60;;;;;;;;;;5033369;28;20380;-76
2023/09/23 05:27:05;;;;;;;1.35;0.90;;;;;;;;;;5033127;28;20017;-77
2023/09/23 05:29:32;;;;;;;0.73;0.73;;;;;;;;;;5033547;28;20093;-77
2023/09/23 05:31:58;;;;;;;1.15;0.80;;;;;;;;;;5034080;28;20026;-77
2023/09/23 05:34:24;;;;;;;2.97;0.90;;;;;;;;;;5033938;28;20041;-77
2023/09/23 05:36:51;;;;;;;1.73;0.70;;;;;;;;;;5033486;28;20056;-77
2023/09/23 05:39:20;;;;;;;1.10;0.80;;;;;;;;;;5036655;28;20026;-77
2023/09/23 05:41:47;;;;;;;2.65;0.68;;;;;;;;;;5036868;28;20420;-77
2023/09/23 05:44:15;;;;;;;2.20;0.90;;;;;;;;;;5055483;28;20029;-77
2023/09/23 05:46:42;;;;;;;1.20;1.05;;;;;;;;;;5056926;28;20029;-77
2023/09/23 05:49:08;;;;;;;1.42;0.80;;;;;;;;;;5072021;28;20119;-77
2023/09/23 05:51:35;;;;;;;1.83;0.75;;;;;;;;;;5059484;28;20044;-76
2023/09/23 05:54:02;;;;;;;1.83;0.82;;;;;;;;;;5052428;28;20022;-76
2023/09/23 05:56:28;;;;;;;1.00;0.73;;;;;;;;;;5045150;28;20060;-76
2023/09/23 05:58:54;;;;;;;0.88;0.63;;;;;;;;;;5052551;28;20044;-75
2023/09/23 06:01:20;;;;;;;0.90;0.90;;;;;;;;;;5052697;28;20033;-77
2023/09/23 06:03:48;;;;;;;0.88;0.85;;;;;;;;;;5062112;28;20021;-77
2023/09/23 06:06:14;;;;;;;0.93;0.93;;;;;;;;;;5051648;28;20095;-78
2023/09/23 06:08:40;;;;;;;0.90;0.82;;;;;;;;;;5043990;28;20029;-77
2023/09/23 06:11:07;;;;;;;0.88;0.88;;;;;;;;;;5036377;28;20020;-76
2023/09/23 06:13:34;;;;;;;1.00;0.85;;;;;;;;;;5042362;28;20017;-77
2023/09/23 06:16:03;;;;;;;1.70;1.02;;;;;;;;;;5056709;28;20021;-76
2023/09/23 06:18:30;;;;;;;0.65;0.65;;;;;;;;;;5056047;28;20028;-76
2023/09/23 06:21:00;;;;;;;0.73;0.73;;;;;;;;;;5056777;28;20025;-77
2023/09/23 06:23:26;;;;;;;1.27;0.77;;;;;;;;;;5055660;28;20033;-76
2023/09/23 06:25:55;;;;;;;0.80;0.80;;;;;;;;;;5055908;28;20032;-76
2023/09/23 06:28:24;;;;;;;1.50;0.98;;;;;;;;;;5055724;28;20084;-76
2023/09/23 06:30:51;;;;;;;0.75;0.75;;;;;;;;;;5059654;28;20050;-77
2023/09/23 06:33:17;;;;;;;0.88;0.75;;;;;;;;;;5050223;28;20087;-77
2023/09/23 06:35:43;;;;;;;2.03;0.82;;;;;;;;;;5056541;28;20082;-77
2023/09/23 06:38:09;;;;;;;1.55;0.88;;;;;;;;;;5079075;28;20033;-77
2023/09/23 06:40:35;;;;;;;2.45;1.23;;;;;;;;;;5076255;28;20009;-77
2023/09/23 06:43:02;;;;;;;1.85;1.10;;;;;;;;;;5065231;28;20024;-77
2023/09/23 06:45:28;;;;;;;1.15;1.05;;;;;;;;;;5055085;28;20112;-78
2023/09/23 06:47:54;;;;;;;0.70;0.70;;;;;;;;;;5038734;28;20063;-77
2023/09/23 06:50:23;;;;;;;0.75;0.57;;;;;;;;;;5034627;28;20021;-76
2023/09/23 06:52:49;;;;;;;0.73;0.50;;;;;;;;;;5040999;28;20055;-77
2023/09/23 06:55:15;;;;;;;1.20;1.10;;;;;;;;;;5050812;28;20045;-77
2023/09/23 06:57:41;;;;;;;2.58;1.20;;;;;;;;;;5064017;28;20055;-76
2023/09/23 07:00:08;;;;;;;4.35;1.33;;;;;;;;;;5064383;28;20071;-78
2023/09/23 07:02:34;;;;;;;1.27;0.70;;;;;;;;;;5066515;28;20024;-77
2023/09/23 07:05:01;;;;;;;1.63;1.08;;;;;;;;;;5050964;28;20029;-76
2023/09/23 07:07:27;;;;;;;1.08;0.63;;;;;;;;;;5061459;28;20025;-78
2023/09/23 07:09:54;;;;;;;0.60;0.60;;;;;;;;;;5057385;28;20023;-77
2023/09/23 07:12:20;;;;;;;1.35;0.63;;;;;;;;;;5056892;28;20028;-77
2023/09/23 07:14:46;;;;;;;0.80;0.80;;;;;;;;;;5055318;28;20388;-78
2023/09/23 07:17:12;;;;;;;0.88;0.80;;;;;;;;;;5036575;28;20021;-77
2023/09/23 07:19:38;;;;;;;0.75;0.75;;;;;;;;;;5034192;28;20036;-77
2023/09/23 07:22:04;;;;;;;0.73;0.70;;;;;;;;;;5035543;28;20464;-76
2023/09/23 07:24:34;;;;;;;1.20;0.82;;;;;;;;;;5037021;28;20488;-77
2023/09/23 07:27:00;;;;;;;0.80;0.80;;;;;;;;;;5051452;28;20033;-77
2023/09/23 07:29:26;;;;;;;1.20;1.02;;;;;;;;;;5055741;28;20085;-76
2023/09/23 07:31:53;;;;;;;1.10;1.00;;;;;;;;;;5055053;28;20472;-77
2023/09/23 07:34:19;;;;;;;1.27;1.10;;;;;;;;;;5036552;28;20026;-78
2023/09/23 07:36:46;;;;;;;0.73;0.70;;;;;;;;;;5043773;28;20032;-78
2023/09/23 07:39:12;;;;;;;0.60;0.60;;;;;;;;;;5054416;28;20552;-78
2023/09/23 07:41:38;;;;;;;0.70;0.55;;;;;;;;;;5053897;28;20440;-77
2023/09/23 07:44:05;;;;;;;0.80;0.80;;;;;;;;;;5053067;28;20395;-78
2023/09/23 07:46:32;;;;;;;0.70;0.70;;;;;;;;;;5049091;28;20025;-77
2023/09/23 07:48:58;;;;;;;1.20;0.77;;;;;;;;;;5034180;28;20429;-77
2023/09/23 07:51:24;;;;;;;0.70;0.70;;;;;;;;;;5047110;28;20029;-78
2023/09/23 07:53:53;;;;;;;0.50;0.50;;;;;;;;;;5051592;28;20013;-78
2023/09/23 07:56:20;;;;;;;1.58;0.75;;;;;;;;;;5043309;28;20056;-76
2023/09/23 07:58:46;;;;;;;0.93;0.65;;;;;;;;;;5058392;28;20029;-75
2023/09/23 08:01:12;;;;;;;0.43;0.43;;;;;;;;;;5056326;28;20407;-77
2023/09/23 08:03:38;;;;;;;0.50;0.40;;;;;;;;;;5043967;28;20034;-77
2023/09/23 08:06:04;;;;;;;0.60;0.57;;;;;;;;;;5033985;28;20036;-77
2023/09/23 08:08:30;;;;;;;0.82;0.60;;;;;;;;;;5049595;28;20033;-77
2023/09/23 08:10:56;;;;;;;1.10;0.60;;;;;;;;;;5034508;28;20059;-77
2023/09/23 08:13:22;;;;;;;1.38;0.70;;;;;;;;;;5034064;28;20024;-77
2023/09/23 08:15:49;;;;;;;0.52;0.50;;;;;;;;;;5034109;28;20028;-77
2023/09/23 08:18:15;;;;;;;0.68;0.50;;;;;;;;;;5034346;28;20034;-77
2023/09/23 08:20:41;;;;;;;0.52;0.50;;;;;;;;;;5033318;28;20438;-78
2023/09/23 08:23:07;;;;;;;0.40;0.40;;;;;;;;;;5034448;28;20021;-77
2023/09/23 08:25:34;;;;;;;1.00;0.63;;;;;;;;;;5034576;28;20447;-77
2023/09/23 08:28:01;;;;;;;0.77;0.70;;;;;;;;;;5039114;28;20029;-77
2023/09/23 08:30:27;;;;;;;0.88;0.70;;;;;;;;;;5053191;28;20024;-77
2023/09/23 08:32:54;;;;;;;1.17;0.47;;;;;;;;;;5046951;28;20104;-78
2023/09/23 08:35:21;;;;;;;1.08;0.68;;;;;;;;;;5052377;28;20017;-76
2023/09/23 08:37:47;;;;;;;1.33;0.73;;;;;;;;;;5053046;28;20090;-76
2023/09/23 08:40:13;;;;;;;1.27;0.88;;;;;;;;;;5053256;28;20480;-77
2023/09/23 08:42:40;;;;;;;2.20;0.90;;;;;;;;;;5053229;28;20033;-78
2023/09/23 08:45:08;;;;;;;0.82;0.70;;;;;;;;;;5053106;28;20083;-77
2023/09/23 08:47:36;;;;;;;0.98;0.68;;;;;;;;;;5051489;28;20033;-78
2023/09/23 08:50:03;;;;;;;2.00;0.73;;;;;;;;;;5049018;28;20040;-77
2023/09/23 08:52:31;;;;;;;2.03;0.60;;;;;;;;;;5053002;28;20036;-76
2023/09/23 08:54:57;;;;;;;2.25;1.20;;;;;;;;;;5053711;28;20078;-77
2023/09/23 08:57:23;;;;;;;2.17;1.10;;;;;;;;;;5053252;28;20021;-76
2023/09/23 08:59:49;;;;;;;0.77;0.60;;;;;;;;;;5040501;28;20087;-77
2023/09/23 09:02:25;;;;;;;1.45;0.90;;;;;;;;;;5034403;28;20530;-77
2023/09/23 09:04:58;;;;;;;0.63;0.50;;;;;;;;;;5032973;28;20017;-77
2023/09/23 09:07:34;;;;;;;1.85;0.80;;;;;;;;;;5033044;28;20021;-77
2023/09/23 09:10:00;;;;;;;1.77;0.70;;;;;;;;;;5043225;28;20025;-77
2023/09/23 09:12:26;;;;;;;1.48;0.70;;;;;;;;;;5054303;28;20033;-76
2023/09/23 09:14:53;;;;;;;1.27;0.60;;;;;;;;;;5056573;28;20021;-77
2023/09/23 09:17:19;;;;;;;1.52;0.70;;;;;;;;;;5055249;28;20044;-77
2023/09/23 09:19:45;;;;;;;1.23;0.57;;;;;;;;;;5049052;28;20091;-77
2023/09/23 09:22:12;;;;;;;0.55;0.40;;;;;;;;;;5045630;28;20480;-76
2023/09/23 09:24:38;;;;;;;0.70;0.47;;;;;;;;;;5056584;28;20071;-76
2023/09/23 09:27:09;;;;;;;1.77;0.75;;;;;;;;;;5056154;28;20415;-77
2023/09/23 09:29:37;;;;;;;0.38;0.30;;;;;;;;;;5054759;28;20032;-77
2023/09/23 09:32:04;;;;;;;0.80;0.30;;;;;;;;;;5038402;28;20096;-77
2023/09/23 09:34:32;;;;;;;0.82;0.60;;;;;;;;;;5040238;28;20476;-78
2023/09/23 09:36:58;;;;;;;0.73;0.70;;;;;;;;;;5056738;28;20025;-79
2023/09/23 09:39:28;;;;;;;1.45;0.50;;;;;;;;;;5056716;28;20037;-77
2023/09/23 09:41:55;;;;;;;0.30;0.30;;;;;;;;;;5038571;28;20028;-77
2023/09/23 09:44:22;;;;;;;0.75;0.40;;;;;;;;;;5036782;28;20503;-77
2023/09/23 09:46:51;;;;;;;1.88;0.52;;;;;;;;;;5036926;28;20041;-75
2023/09/23 09:49:17;;;;;;;1.17;0.40;;;;;;;;;;5036123;28;20364;-77
2023/09/23 09:51:51;;;;;;;0.82;0.57;;;;;;;;;;5048193;28;20033;-78
2023/09/23 09:54:19;;;;;;;0.85;0.50;;;;;;;;;;5056212;28;20017;-77
2023/09/23 09:56:47;;;;;;;0.77;0.55;;;;;;;;;;5056523;28;20024;-77
2023/09/23 09:59:26;;;;;;;0.43;0.40;;;;;;;;;;5056686;28;20082;-78
2023/09/23 10:01:53;;;;;;;0.47;0.47;;;;;;;;;;5044036;28;20029;-78
2023/09/23 10:04:21;;;;;;;0.52;0.47;;;;;;;;;;5038853;28;20499;-77
2023/09/23 10:06:54;;;;;;;0.55;0.55;;;;;;;;;;5056035;28;20101;-78
2023/09/23 10:09:27;;;;;;;1.42;0.77;;;;;;;;;;5054171;28;20017;-77
2023/09/23 10:11:54;;;;;;;0.57;0.57;;;;;;;;;;5053317;28;20020;-78
2023/09/23 10:14:21;;;;;;;0.60;0.60;;;;;;;;;;5041398;28;20029;-78
2023/09/23 10:16:51;;;;;;;1.45;0.77;;;;;;;;;;5035519;28;20021;-77
2023/09/23 10:19:28;;;;;;;1.00;0.70;;;;;;;;;;5035950;28;20076;-78
2023/09/23 10:22:03;;;;;;;0.88;0.60;;;;;;;;;;5041453;28;20028;-77
2023/09/23 10:24:33;;;;;;;0.70;0.70;;;;;;;;;;5055205;28;20021;-78
2023/09/23 10:27:04;;;;;;;0.90;0.60;;;;;;;;;;5056521;28;20073;-78
2023/09/23 10:29:41;;;;;;;0.80;0.70;;;;;;;;;;5055343;28;20434;-78
2023/09/23 10:32:12;;;;;;;3.15;0.70;;;;;;;;;;5053952;28;20025;-77
2023/09/23 10:34:45;;;;;;;0.93;0.50;;;;;;;;;;5039820;28;20009;-77
2023/09/23 10:37:11;;;;;;;0.60;0.60;;;;;;;;;;5056400;28;20025;-75
2023/09/23 10:39:43;;;;;;;0.70;0.70;;;;;;;;;;5056531;28;20029;-76
2023/09/23 10:42:14;;;;;;;0.40;0.40;;;;;;;;;;5052741;28;20488;-77
2023/09/23 10:44:40;;;;;;;0.45;0.40;;;;;;;;;;5056393;28;20464;-77
2023/09/23 10:47:07;;;;;;;0.68;0.60;;;;;;;;;;5056711;28;20044;-78
2023/09/23 10:49:33;;;;;;;0.30;0.30;;;;;;;;;;5055274;28;20029;-78
2023/09/23 10:51:59;;;;;;;0.98;0.50;;;;;;;;;;5055568;28;20059;-76
2023/09/23 10:54:25;;;;;;;1.10;0.80;;;;;;;;;;5053225;28;20036;-77
2023/09/23 10:56:52;;;;;;;0.68;0.65;;;;;;;;;;5035676;28;20025;-77
2023/09/23 10:59:18;;;;;;;1.10;0.70;;;;;;;;;;5035356;28;20412;-77
2023/09/23 11:01:45;;;;;;;0.57;0.40;;;;;;;;;;5034933;28;20021;-77
2023/09/23 11:04:11;;;;;;;0.93;0.60;;;;;;;;;;5052535;28;20032;-78
2023/09/23 11:06:38;;;;;;;2.60;0.65;;;;;;;;;;5034695;28;20052;-77
2023/09/23 11:09:07;;;;;;;0.65;0.50;;;;;;;;;;5050567;28;20029;-78
2023/09/23 11:11:34;;;;;;;1.42;0.50;;;;;;;;;;5034213;28;20021;-77
2023/09/23 11:14:00;;;;;;;1.05;0.70;;;;;;;;;;5043185;28;20025;-78
2023/09/23 11:16:26;;;;;;;1.70;0.68;;;;;;;;;;5053403;28;20025;-76
2023/09/23 11:18:55;;;;;;;0.47;0.40;;;;;;;;;;5054355;28;20024;-77
2023/09/23 11:21:21;;;;;;;0.55;0.50;;;;;;;;;;5055059;28;20047;-77
2023/09/23 11:24:01;;;;;;;1.63;0.70;;;;;;;;;;5051938;28;20442;-77
2023/09/23 11:26:27;;;;;;;0.70;0.70;;;;;;;;;;5051802;28;20044;-77
2023/09/23 11:28:53;;;;;;;1.30;0.70;;;;;;;;;;5055193;28;20444;-76
2023/09/23 11:31:19;;;;;;;1.05;0.80;;;;;;;;;;5054763;28;20102;-77
2023/09/23 11:33:45;;;;;;;1.13;0.50;;;;;;;;;;5039239;28;20018;-77
2023/09/23 11:36:12;;;;;;;1.30;0.50;;;;;;;;;;5037802;28;20089;-77
2023/09/23 11:38:39;;;;;;;1.20;0.63;;;;;;;;;;5034230;28;20060;-77
2023/09/23 11:41:07;;;;;;;0.85;0.52;;;;;;;;;;5033760;28;20456;-77
2023/09/23 11:43:33;;;;;;;1.23;0.50;;;;;;;;;;5034368;28;20025;-77
2023/09/23 11:45:59;;;;;;;0.70;0.50;;;;;;;;;;5033880;28;20037;-77
2023/09/23 11:48:25;;;;;;;0.60;0.60;;;;;;;;;;5034793;28;20472;-77
2023/09/23 11:50:51;;;;;;;0.65;0.63;;;;;;;;;;5034535;28;20480;-76
2023/09/23 11:53:18;;;;;;;0.75;0.60;;;;;;;;;;5034372;28;20476;-77
2023/09/23 11:55:45;;;;;;;1.38;0.65;;;;;;;;;;5034605;28;20476;-77
2023/09/23 11:58:12;;;;;;;0.50;0.50;;;;;;;;;;5034274;28;20026;-76
2023/09/23 12:00:38;;;;;;;0.55;0.47;;;;;;;;;;5034531;28;20463;-77
2023/09/23 12:03:04;;;;;;;0.57;0.57;;;;;;;;;;5044073;28;20594;-77
2023/09/23 12:05:30;;;;;;;0.70;0.60;;;;;;;;;;5054299;28;20024;-78
2023/09/23 12:07:58;;;;;;;1.13;0.60;;;;;;;;;;5054379;28;20028;-77
2023/09/23 12:10:25;;;;;;;1.55;0.82;;;;;;;;;;5055364;28;20053;-77
2023/09/23 12:12:51;;;;;;;0.75;0.73;;;;;;;;;;5055237;28;20024;-78
2023/09/23 12:15:17;;;;;;;0.50;0.50;;;;;;;;;;5055126;28;20124;-78
2023/09/23 12:17:43;;;;;;;0.45;0.45;;;;;;;;;;5050263;28;20025;-77
2023/09/23 12:20:11;;;;;;;0.40;0.38;;;;;;;;;;5036572;28;20029;-77
2023/09/23 12:22:38;;;;;;;1.02;0.60;;;;;;;;;;5033160;28;20470;-76
2023/09/23 12:25:06;;;;;;;0.40;0.40;;;;;;;;;;5036078;28;20100;-77
2023/09/23 12:27:33;;;;;;;0.50;0.50;;;;;;;;;;5051030;28;20029;-77
2023/09/23 12:29:59;;;;;;;1.17;0.50;;;;;;;;;;5054823;28;20059;-77
2023/09/23 12:32:25;;;;;;;2.55;0.80;;;;;;;;;;5052597;28;20029;-77
2023/09/23 12:34:51;;;;;;;0.88;0.50;;;;;;;;;;5052530;28;20027;-77
2023/09/23 12:37:17;;;;;;;0.75;0.50;;;;;;;;;;5068398;28;20344;-77
2023/09/23 12:39:43;;;;;;;0.35;0.30;;;;;;;;;;5051854;28;20025;-78
2023/09/23 12:42:10;;;;;;;0.75;0.50;;;;;;;;;;5053122;28;20468;-76
2023/09/23 12:44:36;;;;;;;1.30;0.75;;;;;;;;;;5036731;28;20108;-77
2023/09/23 12:47:03;;;;;;;1.10;0.60;;;;;;;;;;5033797;28;20442;-77
2023/09/23 12:49:29;;;;;;;1.15;0.85;;;;;;;;;;5033896;28;20022;-77
2023/09/23 12:51:55;;;;;;;1.00;0.65;;;;;;;;;;5035508;28;20018;-77
2023/09/23 12:54:21;;;;;;;0.70;0.60;;;;;;;;;;5048105;28;20365;-77
2023/09/23 12:56:47;;;;;;;0.60;0.60;;;;;;;;;;5054474;28;20017;-76
2023/09/23 12:59:14;;;;;;;0.73;0.70;;;;;;;;;;5053666;28;20033;-78
2023/09/23 13:01:40;;;;;;;0.73;0.57;;;;;;;;;;5054522;28;20029;-77
2023/09/23 13:04:06;;;;;;;0.73;0.60;;;;;;;;;;5045831;28;20563;-77
2023/09/23 13:06:32;;;;;;;0.70;0.40;;;;;;;;;;5036385;28;20045;-77
2023/09/23 13:08:58;;;;;;;0.47;0.47;;;;;;;;;;5036269;28;20091;-75
2023/09/23 13:11:24;;;;;;;0.63;0.55;;;;;;;;;;5035548;28;20017;-77
2023/09/23 13:13:51;;;;;;;0.60;0.60;;;;;;;;;;5034638;28;20017;-77
2023/09/23 13:16:17;;;;;;;0.90;0.70;;;;;;;;;;5034472;28;20024;-77
2023/09/23 13:18:43;;;;;;;0.40;0.40;;;;;;;;;;5034015;28;20388;-77
2023/09/23 13:21:10;;;;;;;0.68;0.52;;;;;;;;;;5034583;28;20117;-77
2023/09/23 13:23:38;;;;;;;0.50;0.50;;;;;;;;;;5034515;28;20041;-77
2023/09/23 13:26:04;;;;;;;1.52;0.60;;;;;;;;;;5054005;28;20021;-77
2023/09/23 13:28:30;;;;;;;2.40;0.57;;;;;;;;;;5054204;28;20053;-77
2023/09/23 13:30:57;;;;;;;1.10;0.40;;;;;;;;;;5053689;28;20430;-77
2023/09/23 13:33:26;;;;;;;0.60;0.60;;;;;;;;;;5044352;28;20101;-78
2023/09/23 13:35:52;;;;;;;0.90;0.50;;;;;;;;;;5048117;28;20491;-77
2023/09/23 13:38:18;;;;;;;0.88;0.60;;;;;;;;;;5053613;28;20037;-77
2023/09/23 13:40:44;;;;;;;0.68;0.50;;;;;;;;;;5053874;28;20021;-77
2023/09/23 13:43:10;;;;;;;0.50;0.50;;;;;;;;;;5054272;28;20434;-76
2023/09/23 13:45:37;;;;;;;1.08;0.60;;;;;;;;;;5053286;28;20036;-77
2023/09/23 13:48:05;;;;;;;0.52;0.52;;;;;;;;;;5052669;28;20486;-77
2023/09/23 13:50:31;;;;;;;1.08;0.65;;;;;;;;;;5053349;28;20025;-77
2023/09/23 13:52:57;;;;;;;1.08;0.75;;;;;;;;;;5052975;28;20017;-77
2023/09/23 13:55:24;;;;;;;0.68;0.68;;;;;;;;;;5047470;28;20032;-78
2023/09/23 13:57:50;;;;;;;2.90;0.85;;;;;;;;;;5033761;28;20021;-77
2023/09/23 14:00:16;;;;;;;0.77;0.75;;;;;;;;;;5036587;28;20025;-77
2023/09/23 14:02:43;;;;;;;1.08;0.52;;;;;;;;;;5039994;28;20032;-77
2023/09/23 14:05:10;;;;;;;0.80;0.73;;;;;;;;;;5037721;28;20076;-77
2023/09/23 14:07:37;;;;;;;1.77;0.70;;;;;;;;;;5036166;28;20027;-77
2023/09/23 14:10:04;;;;;;;1.15;1.05;;;;;;;;;;5051678;28;20459;-77
2023/09/23 14:12:30;;;;;;;1.10;1.00;;;;;;;;;;5056254;28;20076;-77
2023/09/23 14:14:56;;;;;;;2.92;0.90;;;;;;;;;;5056370;28;20017;-77
2023/09/23 14:17:23;;;;;;;1.00;0.70;;;;;;;;;;5039617;28;20044;-77
2023/09/23 14:19:49;;;;;;;0.47;0.47;;;;;;;;;;5035791;28;20026;-77
2023/09/23 14:22:15;;;;;;;0.70;0.70;;;;;;;;;;5042452;28;20561;-78
2023/09/23 14:24:42;;;;;;;0.80;0.77;;;;;;;;;;5057688;28;20033;-77
2023/09/23 14:27:08;;;;;;;0.70;0.60;;;;;;;;;;5064805;28;20088;-77
2023/09/23 14:29:34;;;;;;;1.08;0.68;;;;;;;;;;5037415;28;20040;-77
2023/09/23 14:32:00;;;;;;;0.80;0.57;;;;;;;;;;5038238;28;20022;-77
2023/09/23 14:34:27;;;;;;;2.45;0.90;;;;;;;;;;5038938;28;20028;-77
2023/09/23 14:36:53;;;;;;;3.90;0.90;;;;;;;;;;5037026;28;20481;-76
2023/09/23 14:39:20;;;;;;;1.58;0.93;;;;;;;;;;5070911;28;20408;-76
2023/09/23 14:41:46;;;;;;;1.60;0.90;;;;;;;;;;5055693;28;20373;-77
2023/09/23 14:44:12;;;;;;;0.70;0.68;;;;;;;;;;5055776;28;20055;-77